Aérodrome :
LOGIN :

S'inscrire | Disclaimer

   EN    FR    IT 

 










Légende :    VFR   VFR Marginal   IFR   IFR Intensif   IFR Très Intensif
Visi : 
Plafond : 
>= 8 km
>= 3000ft
5 à 8 km
1000 à 3000 ft
1500m à 5 km
500 à 1000 ft
800 à 1500m
200 à 500 ft
< 800m
< 200 ft
Symboles :   Orages  Brouillard  Fortes neiges  Fortes précipitations  Vent > 20 kt
SIGMETs :   Divers  Orages  Givrage  Turbulence  Onde Orograph.  Cendres Volcan.






- Altitude de l'aérodrome : 636 ft


LPBJ - Beja Air Base

DERNIER METAR :
  • 071300Z 19008KT 120V230 9999 FEW048 33/17 Q1017

METARs EXPIRÉS :
  • 071200Z 17009KT 090V200 9999 FEW048 31/18 Q1017
  • 071100Z 15015KT 9999 FEW045 30/18 Q1017

TAF TAF LPBJ
Valide du 07 à 12h jusqu'au 08 à 12h UTC


071109Z 0712/0812 15012KT CAVOK
TEMPO 0712/0714 16012G22KT
BECMG 0716/0718 28010KT
TEMPO 0718/0720 29012G22KT
BECMG 0722/0724 VRB02KT



MET'MAP, la Météo Aéronautique d'un coup d'oeil ! - Copyright ORBIFLY Décembre 2007 - Disclaimer

ORBIFLY MET'MAP TEAM :

Programmation & Développement : Alexandra Zaïnal
Sur une idée originale de : Baudouin d'Aumeries
Assistance à la programmation : Marc-Olivier Méhu
Soutien technique & logistique : Manuel Goepfert

Contact : metmap@orbifly.com




SOURCES & CREDITS :

   NOAA